createdAt,value
2017-05-03T00:00:06.620Z,1011.54
2017-05-03T00:00:47.135Z,1011.46
2017-05-03T00:01:27.727Z,1011.52
2017-05-03T00:02:08.263Z,1011.49
2017-05-03T00:02:48.793Z,1011.47
2017-05-03T00:03:29.302Z,1011.47
2017-05-03T00:04:09.820Z,1011.46
2017-05-03T00:04:50.354Z,1011.46
2017-05-03T00:05:30.861Z,1011.52
2017-05-03T00:06:11.402Z,1011.51
2017-05-03T00:06:51.912Z,1011.49
2017-05-03T00:07:32.429Z,1011.48
2017-05-03T00:08:12.949Z,1011.52
2017-05-03T00:08:53.479Z,1011.49
2017-05-03T00:09:34.009Z,1011.51
2017-05-03T00:10:14.540Z,1011.53
2017-05-03T00:10:55.055Z,1011.52
2017-05-03T00:11:35.587Z,1011.52
2017-05-03T00:12:16.125Z,1011.51
2017-05-03T00:12:56.608Z,1011.5
2017-05-03T00:13:37.153Z,1011.51
2017-05-03T00:14:17.665Z,1011.53
2017-05-03T00:14:58.215Z,1011.46
2017-05-03T00:15:38.714Z,1011.51
2017-05-03T00:16:19.239Z,1011.49
2017-05-03T00:16:59.762Z,1011.49
2017-05-03T00:17:40.293Z,1011.5
2017-05-03T00:18:20.835Z,1011.48
2017-05-03T00:19:01.332Z,1011.47
2017-05-03T00:19:41.861Z,1011.49
2017-05-03T00:20:22.394Z,1011.52
2017-05-03T00:21:02.912Z,1011.5
2017-05-03T00:21:43.438Z,1011.53
2017-05-03T00:22:23.976Z,1011.54
2017-05-03T00:23:04.511Z,1011.57
2017-05-03T00:23:45.033Z,1011.56
2017-05-03T00:24:25.548Z,1011.56
2017-05-03T00:25:06.086Z,1011.56
2017-05-03T00:25:46.620Z,1011.56
2017-05-03T00:26:27.146Z,1011.57
2017-05-03T00:27:07.661Z,1011.57
2017-05-03T00:27:48.193Z,1011.58
2017-05-03T00:28:28.713Z,1011.54
2017-05-03T00:29:09.229Z,1011.57
2017-05-03T00:29:49.751Z,1011.57
2017-05-03T00:30:30.286Z,1011.52
2017-05-03T00:31:10.823Z,1011.57
2017-05-03T00:31:51.337Z,1011.55
2017-05-03T00:32:31.880Z,1011.55
2017-05-03T00:33:12.379Z,1011.54
2017-05-03T00:33:52.891Z,1011.56
2017-05-03T00:34:33.429Z,1011.54
2017-05-03T00:35:13.938Z,1011.57
2017-05-03T00:35:54.448Z,1011.53
2017-05-03T00:36:34.945Z,1011.5
2017-05-03T00:37:15.441Z,1011.53
2017-05-03T00:37:55.953Z,1011.53
2017-05-03T00:38:36.476Z,1011.53
2017-05-03T00:39:17.003Z,1011.5
2017-05-03T00:39:57.525Z,1011.57
2017-05-03T00:40:38.044Z,1011.57
2017-05-03T00:41:18.578Z,1011.54
2017-05-03T00:41:59.072Z,1011.56
2017-05-03T00:42:39.594Z,1011.54
2017-05-03T00:43:20.122Z,1011.56
2017-05-03T00:44:00.636Z,1011.59
2017-05-03T00:44:41.161Z,1011.59
2017-05-03T00:45:21.690Z,1011.58
2017-05-03T00:46:02.219Z,1011.59
2017-05-03T00:46:42.741Z,1011.61
2017-05-03T00:47:23.287Z,1011.59
2017-05-03T00:48:03.810Z,1011.63
2017-05-03T00:48:44.342Z,1011.59
2017-05-03T00:49:24.892Z,1011.6
2017-05-03T00:50:05.428Z,1011.57
2017-05-03T00:50:45.944Z,1011.54
2017-05-03T00:51:26.470Z,1011.55
2017-05-03T00:52:06.992Z,1011.59
2017-05-03T00:52:47.502Z,1011.57
2017-05-03T00:53:28.018Z,1011.56
2017-05-03T00:54:08.533Z,1011.56
2017-05-03T00:54:49.063Z,1011.52
2017-05-03T00:55:29.585Z,1011.55
2017-05-03T00:56:10.116Z,1011.54
2017-05-03T00:56:50.623Z,1011.52
2017-05-03T00:57:31.161Z,1011.54
2017-05-03T00:58:11.669Z,1011.55
2017-05-03T00:58:52.194Z,1011.57
2017-05-03T00:59:32.730Z,1011.51
2017-05-03T01:00:13.239Z,1011.54
2017-05-03T01:00:53.749Z,1011.53
2017-05-03T01:01:34.284Z,1011.56
2017-05-03T01:02:14.810Z,1011.52
2017-05-03T01:02:55.321Z,1011.48
2017-05-03T01:03:35.837Z,1011.53
2017-05-03T01:04:16.343Z,1011.53
2017-05-03T01:04:56.843Z,1011.53
2017-05-03T01:05:37.423Z,1011.52
2017-05-03T01:06:17.945Z,1011.54
2017-05-03T01:06:58.485Z,1011.54
2017-05-03T01:07:39.033Z,1011.56
2017-05-03T01:08:19.559Z,1011.55
2017-05-03T01:09:00.089Z,1011.55
2017-05-03T01:09:40.592Z,1011.54
2017-05-03T01:10:21.094Z,1011.56
2017-05-03T01:11:01.623Z,1011.51
2017-05-03T01:11:42.145Z,1011.53
2017-05-03T01:12:22.677Z,1011.54
2017-05-03T01:13:03.215Z,1011.54
2017-05-03T01:13:43.729Z,1011.54
2017-05-03T01:14:24.259Z,1011.57
2017-05-03T01:15:04.782Z,1011.56
2017-05-03T01:15:45.296Z,1011.59
2017-05-03T01:16:25.797Z,1011.57
2017-05-03T01:17:06.330Z,1011.55
2017-05-03T01:17:46.861Z,1011.58
2017-05-03T01:18:27.378Z,1011.57
2017-05-03T01:19:07.880Z,1011.56
2017-05-03T01:19:48.387Z,1011.56
2017-05-03T01:20:28.932Z,1011.58
2017-05-03T01:21:09.455Z,1011.56
2017-05-03T01:21:49.985Z,1011.56
2017-05-03T01:22:30.481Z,1011.54
2017-05-03T01:23:11.008Z,1011.54
2017-05-03T01:23:51.529Z,1011.53
2017-05-03T01:24:32.047Z,1011.53
2017-05-03T01:25:12.561Z,1011.53
2017-05-03T01:25:53.079Z,1011.58
2017-05-03T01:26:33.606Z,1011.53
2017-05-03T01:27:14.117Z,1011.54
2017-05-03T01:27:54.639Z,1011.55
2017-05-03T01:28:35.150Z,1011.55
2017-05-03T01:29:15.691Z,1011.53
2017-05-03T01:29:56.230Z,1011.54
2017-05-03T01:30:36.745Z,1011.57
2017-05-03T01:31:17.281Z,1011.53
2017-05-03T01:31:57.802Z,1011.54
2017-05-03T01:32:40.829Z,1011.53
2017-05-03T01:33:21.343Z,1011.56
2017-05-03T01:34:01.881Z,1011.57
2017-05-03T01:34:42.394Z,1011.58
2017-05-03T01:35:22.893Z,1011.57
2017-05-03T01:36:03.412Z,1011.59
2017-05-03T01:36:43.928Z,1011.56
2017-05-03T01:37:24.448Z,1011.59
2017-05-03T01:38:04.971Z,1011.58
2017-05-03T01:38:45.484Z,1011.57
2017-05-03T01:39:26.015Z,1011.6
2017-05-03T01:40:06.548Z,1011.61
2017-05-03T01:40:47.066Z,1011.6
2017-05-03T01:41:27.596Z,1011.59
2017-05-03T01:42:08.096Z,1011.6
2017-05-03T01:42:48.613Z,1011.61
2017-05-03T01:43:29.139Z,1011.62
2017-05-03T01:44:09.641Z,1011.58
2017-05-03T01:44:50.162Z,1011.63
2017-05-03T01:45:30.705Z,1011.61
2017-05-03T01:46:11.234Z,1011.61
2017-05-03T01:46:51.776Z,1011.62
2017-05-03T01:47:32.319Z,1011.6
2017-05-03T01:48:12.855Z,1011.63
2017-05-03T01:48:53.402Z,1011.6
2017-05-03T01:49:33.959Z,1011.61
2017-05-03T01:50:14.474Z,1011.56
2017-05-03T01:50:54.997Z,1011.6
2017-05-03T01:51:35.517Z,1011.63
2017-05-03T01:52:16.068Z,1011.59
2017-05-03T01:52:56.568Z,1011.6
2017-05-03T01:53:37.092Z,1011.61
2017-05-03T01:54:17.625Z,1011.57
2017-05-03T01:54:58.149Z,1011.59
2017-05-03T01:55:38.696Z,1011.62
2017-05-03T01:56:19.216Z,1011.64
2017-05-03T01:56:59.741Z,1011.59
2017-05-03T01:57:40.251Z,1011.61
2017-05-03T01:58:20.779Z,1011.61
2017-05-03T01:59:01.310Z,1011.58
2017-05-03T01:59:41.851Z,1011.56
2017-05-03T02:00:22.387Z,1011.58
2017-05-03T02:01:02.908Z,1011.58
2017-05-03T02:01:43.448Z,1011.55
2017-05-03T02:02:23.971Z,1011.53
2017-05-03T02:03:04.496Z,1011.52
2017-05-03T02:03:45.021Z,1011.56
2017-05-03T02:04:25.548Z,1011.54
2017-05-03T02:05:06.079Z,1011.57
2017-05-03T02:05:46.611Z,1011.56
2017-05-03T02:06:27.143Z,1011.58
2017-05-03T02:07:07.680Z,1011.55
2017-05-03T02:07:48.207Z,1011.6
2017-05-03T02:08:28.754Z,1011.56
2017-05-03T02:09:09.282Z,1011.55
2017-05-03T02:09:49.796Z,1011.59
2017-05-03T02:10:30.332Z,1011.59
2017-05-03T02:11:10.861Z,1011.56
2017-05-03T02:11:51.388Z,1011.58
2017-05-03T02:12:31.907Z,1011.59
2017-05-03T02:13:12.427Z,1011.56
2017-05-03T02:13:52.943Z,1011.56
2017-05-03T02:14:33.476Z,1011.55
2017-05-03T02:15:14.008Z,1011.56
2017-05-03T02:15:54.526Z,1011.57
2017-05-03T02:16:35.054Z,1011.55
2017-05-03T02:17:15.577Z,1011.54
2017-05-03T02:17:56.080Z,1011.53
2017-05-03T02:18:36.586Z,1011.53
2017-05-03T02:19:17.110Z,1011.53
2017-05-03T02:19:57.632Z,1011.58
2017-05-03T02:20:38.156Z,1011.56
2017-05-03T02:21:18.695Z,1011.53
2017-05-03T02:21:59.222Z,1011.58
2017-05-03T02:22:39.726Z,1011.57
2017-05-03T02:23:20.258Z,1011.53
2017-05-03T02:24:00.795Z,1011.58
2017-05-03T02:24:41.325Z,1011.61
2017-05-03T02:25:21.865Z,1011.57
2017-05-03T02:26:02.403Z,1011.58
2017-05-03T02:26:42.940Z,1011.6
2017-05-03T02:27:23.459Z,1011.64
2017-05-03T02:28:03.995Z,1011.59
2017-05-03T02:28:44.496Z,1011.62
2017-05-03T02:29:25.037Z,1011.61
2017-05-03T02:30:05.571Z,1011.59
2017-05-03T02:30:46.090Z,1011.62
2017-05-03T02:31:26.595Z,1011.61
2017-05-03T02:32:07.126Z,1011.62
2017-05-03T02:32:47.645Z,1011.6
2017-05-03T02:33:28.169Z,1011.61
2017-05-03T02:34:08.681Z,1011.63
2017-05-03T02:34:49.218Z,1011.59
2017-05-03T02:35:29.747Z,1011.66
2017-05-03T02:36:10.276Z,1011.6
2017-05-03T02:36:50.800Z,1011.61
2017-05-03T02:37:31.319Z,1011.64
2017-05-03T02:38:11.853Z,1011.64
2017-05-03T02:38:52.354Z,1011.63
2017-05-03T02:39:32.866Z,1011.66
2017-05-03T02:40:13.394Z,1011.63
2017-05-03T02:40:53.904Z,1011.62
2017-05-03T02:41:34.418Z,1011.67
2017-05-03T02:42:14.954Z,1011.62
2017-05-03T02:42:55.485Z,1011.65
2017-05-03T02:43:35.991Z,1011.63
2017-05-03T02:44:16.520Z,1011.63
2017-05-03T02:44:57.044Z,1011.64
2017-05-03T02:45:37.574Z,1011.66
2017-05-03T02:46:18.078Z,1011.63
2017-05-03T02:46:58.611Z,1011.62
2017-05-03T02:47:39.140Z,1011.63
2017-05-03T02:48:19.676Z,1011.62
2017-05-03T02:49:00.184Z,1011.67
2017-05-03T02:49:40.717Z,1011.64
2017-05-03T02:50:21.234Z,1011.65
2017-05-03T02:51:01.761Z,1011.64
2017-05-03T02:51:42.310Z,1011.66
2017-05-03T02:52:22.788Z,1011.6
2017-05-03T02:53:03.298Z,1011.62
2017-05-03T02:53:43.820Z,1011.61
2017-05-03T02:54:24.342Z,1011.6
2017-05-03T02:55:04.847Z,1011.63
2017-05-03T02:55:45.369Z,1011.6
2017-05-03T02:56:25.888Z,1011.64
2017-05-03T02:57:06.436Z,1011.68
2017-05-03T02:57:46.984Z,1011.64
2017-05-03T02:58:27.510Z,1011.65
2017-05-03T02:59:08.016Z,1011.61
2017-05-03T02:59:48.549Z,1011.64
2017-05-03T03:00:29.076Z,1011.6
2017-05-03T03:01:09.589Z,1011.58
2017-05-03T03:01:50.144Z,1011.59
2017-05-03T03:02:30.665Z,1011.61
2017-05-03T03:03:11.180Z,1011.61
2017-05-03T03:03:51.684Z,1011.6
2017-05-03T03:04:32.194Z,1011.6
2017-05-03T03:05:12.729Z,1011.6
2017-05-03T03:05:53.262Z,1011.59
2017-05-03T03:06:33.757Z,1011.6
2017-05-03T03:07:14.279Z,1011.62
2017-05-03T03:07:54.798Z,1011.59
2017-05-03T03:08:35.301Z,1011.59
2017-05-03T03:09:15.831Z,1011.58
2017-05-03T03:09:56.337Z,1011.58
2017-05-03T03:10:36.866Z,1011.62
2017-05-03T03:11:17.383Z,1011.6
2017-05-03T03:11:57.910Z,1011.6
2017-05-03T03:12:38.425Z,1011.56
2017-05-03T03:13:18.950Z,1011.57
2017-05-03T03:13:59.433Z,1011.58
2017-05-03T03:14:39.939Z,1011.57
2017-05-03T03:15:20.431Z,1011.57
2017-05-03T03:16:00.937Z,1011.58
2017-05-03T03:16:41.436Z,1011.6
2017-05-03T03:17:21.947Z,1011.59
2017-05-03T03:18:02.474Z,1011.61
2017-05-03T03:18:42.979Z,1011.58
2017-05-03T03:19:23.491Z,1011.57
2017-05-03T03:20:04.012Z,1011.59
2017-05-03T03:20:44.496Z,1011.61
2017-05-03T03:21:24.995Z,1011.59
2017-05-03T03:22:05.506Z,1011.61
2017-05-03T03:22:46.033Z,1011.56
2017-05-03T03:23:26.549Z,1011.57
2017-05-03T03:24:07.044Z,1011.57
2017-05-03T03:24:47.569Z,1011.55
2017-05-03T03:25:28.090Z,1011.57
2017-05-03T03:26:08.597Z,1011.52
2017-05-03T03:26:49.133Z,1011.54
2017-05-03T03:27:29.646Z,1011.55
2017-05-03T03:28:10.156Z,1011.54
2017-05-03T03:28:50.700Z,1011.56
2017-05-03T03:29:31.232Z,1011.56
2017-05-03T03:30:11.758Z,1011.58
2017-05-03T03:30:52.247Z,1011.57
2017-05-03T03:31:32.775Z,1011.58
2017-05-03T03:32:13.295Z,1011.59
2017-05-03T03:32:53.884Z,1011.53
2017-05-03T03:33:34.393Z,1011.57
2017-05-03T03:34:14.902Z,1011.6
2017-05-03T03:34:55.426Z,1011.58
2017-05-03T03:35:35.975Z,1011.56
2017-05-03T03:36:16.492Z,1011.59
2017-05-03T03:36:57.033Z,1011.55
2017-05-03T03:37:37.547Z,1011.59
2017-05-03T03:38:18.086Z,1011.55
2017-05-03T03:38:58.605Z,1011.59
2017-05-03T03:39:39.141Z,1011.59
2017-05-03T03:40:19.635Z,1011.61
2017-05-03T03:41:00.163Z,1011.59
2017-05-03T03:41:40.683Z,1011.63
2017-05-03T03:42:21.193Z,1011.6
2017-05-03T03:43:01.673Z,1011.6
2017-05-03T03:43:42.186Z,1011.63
2017-05-03T03:44:22.787Z,1011.62
2017-05-03T03:45:03.261Z,1011.62
2017-05-03T03:45:43.787Z,1011.63
2017-05-03T03:46:24.298Z,1011.63
2017-05-03T03:47:04.823Z,1011.62
2017-05-03T03:47:45.329Z,1011.68
2017-05-03T03:48:25.843Z,1011.68
2017-05-03T03:49:06.355Z,1011.65
2017-05-03T03:49:46.872Z,1011.7
2017-05-03T03:50:27.444Z,1011.7
2017-05-03T03:51:07.945Z,1011.71
2017-05-03T03:51:48.537Z,1011.67
2017-05-03T03:52:29.110Z,1011.7
2017-05-03T03:53:09.657Z,1011.68
2017-05-03T03:53:50.163Z,1011.71
2017-05-03T03:54:30.684Z,1011.72
2017-05-03T03:55:11.200Z,1011.74
2017-05-03T03:55:51.720Z,1011.71
2017-05-03T03:56:32.245Z,1011.74
2017-05-03T03:57:12.735Z,1011.72
2017-05-03T03:57:53.259Z,1011.73
2017-05-03T03:58:33.848Z,1011.76
2017-05-03T03:59:14.361Z,1011.79
2017-05-03T03:59:54.893Z,1011.71
2017-05-03T04:00:35.620Z,1011.75
2017-05-03T04:01:16.012Z,1011.73
2017-05-03T04:01:56.531Z,1011.77
2017-05-03T04:02:37.062Z,1011.76
2017-05-03T04:03:17.580Z,1011.78
2017-05-03T04:03:58.104Z,1011.82
2017-05-03T04:04:38.726Z,1011.77
2017-05-03T04:05:19.209Z,1011.8
2017-05-03T04:05:59.718Z,1011.8
2017-05-03T04:06:40.217Z,1011.82
2017-05-03T04:07:20.714Z,1011.82
2017-05-03T04:08:01.213Z,1011.83
2017-05-03T04:08:41.707Z,1011.85
2017-05-03T04:09:22.200Z,1011.86
2017-05-03T04:10:02.703Z,1011.83
2017-05-03T04:10:43.206Z,1011.85
2017-05-03T04:11:23.693Z,1011.89
2017-05-03T04:12:04.226Z,1011.88
2017-05-03T04:12:44.737Z,1011.89
2017-05-03T04:13:25.229Z,1011.87
2017-05-03T04:14:05.741Z,1011.87
2017-05-03T04:14:46.265Z,1011.87
2017-05-03T04:15:26.773Z,1011.87
2017-05-03T04:16:07.281Z,1011.87
2017-05-03T04:16:47.773Z,1011.87
2017-05-03T04:17:28.272Z,1011.88
2017-05-03T04:18:08.834Z,1011.86
2017-05-03T04:18:49.362Z,1011.87
2017-05-03T04:19:29.877Z,1011.91
2017-05-03T04:20:10.425Z,1011.89
2017-05-03T04:20:50.950Z,1011.92
2017-05-03T04:21:31.443Z,1011.9
2017-05-03T04:22:11.976Z,1011.91
2017-05-03T04:22:52.489Z,1011.9
2017-05-03T04:23:33.008Z,1011.88
2017-05-03T04:24:13.526Z,1011.89
2017-05-03T04:24:54.047Z,1011.91
2017-05-03T04:25:34.596Z,1011.9
2017-05-03T04:26:15.118Z,1011.91
2017-05-03T04:26:55.626Z,1011.9
2017-05-03T04:27:36.175Z,1011.92
2017-05-03T04:28:16.698Z,1011.9
2017-05-03T04:28:57.201Z,1011.92
2017-05-03T04:29:37.735Z,1011.92
2017-05-03T04:30:18.216Z,1011.91
2017-05-03T04:30:58.731Z,1011.89
2017-05-03T04:31:39.252Z,1011.88
2017-05-03T04:32:19.777Z,1011.9
2017-05-03T04:33:00.285Z,1011.9
2017-05-03T04:33:40.797Z,1011.92
2017-05-03T04:34:21.301Z,1011.91
2017-05-03T04:35:01.816Z,1011.9
2017-05-03T04:35:42.379Z,1011.9
2017-05-03T04:36:22.849Z,1011.9
2017-05-03T04:37:03.360Z,1011.91
2017-05-03T04:37:43.904Z,1011.89
2017-05-03T04:38:24.407Z,1011.92
2017-05-03T04:39:04.924Z,1011.94
2017-05-03T04:39:45.430Z,1011.94
2017-05-03T04:40:25.945Z,1011.94
2017-05-03T04:41:06.462Z,1011.91
2017-05-03T04:41:46.981Z,1011.94
2017-05-03T04:42:27.478Z,1011.93
2017-05-03T04:43:07.986Z,1011.98
2017-05-03T04:43:48.518Z,1011.96
2017-05-03T04:44:29.014Z,1011.96
2017-05-03T04:45:09.554Z,1011.92
2017-05-03T04:45:50.028Z,1011.97
2017-05-03T04:46:30.547Z,1011.96
2017-05-03T04:47:11.068Z,1011.93
2017-05-03T04:47:51.627Z,1011.95
2017-05-03T04:48:32.133Z,1011.95
2017-05-03T04:49:12.669Z,1011.95
2017-05-03T04:49:53.199Z,1011.95
2017-05-03T04:50:33.714Z,1011.95
2017-05-03T04:51:14.216Z,1012
2017-05-03T04:51:54.742Z,1011.97
2017-05-03T04:52:35.251Z,1011.96
2017-05-03T04:53:15.779Z,1011.99
2017-05-03T04:53:56.309Z,1011.97
2017-05-03T04:54:36.804Z,1012.01
2017-05-03T04:55:17.291Z,1012.03
2017-05-03T04:55:57.778Z,1012.02
2017-05-03T04:56:38.273Z,1012.02
2017-05-03T04:57:18.799Z,1011.99
2017-05-03T04:57:59.306Z,1012.01
2017-05-03T04:58:39.798Z,1011.99
2017-05-03T04:59:20.329Z,1011.97
2017-05-03T05:00:00.823Z,1012.02
2017-05-03T05:00:41.326Z,1012
2017-05-03T05:01:21.833Z,1012
2017-05-03T05:02:02.337Z,1012.03
2017-05-03T05:02:42.862Z,1012.04
2017-05-03T05:03:23.400Z,1012.05
2017-05-03T05:04:03.942Z,1012.04
2017-05-03T05:04:44.434Z,1012.09
2017-05-03T05:05:24.940Z,1012.06
2017-05-03T05:06:05.428Z,1012.08
2017-05-03T05:06:45.969Z,1012.1
2017-05-03T05:07:26.574Z,1012.09
2017-05-03T05:08:07.037Z,1012.11
2017-05-03T05:08:47.556Z,1012.12
2017-05-03T05:09:28.090Z,1012.11
2017-05-03T05:10:08.588Z,1012.12
2017-05-03T05:10:49.088Z,1012.11
2017-05-03T05:11:29.615Z,1012.13
2017-05-03T05:12:10.123Z,1012.12
2017-05-03T05:12:50.635Z,1012.11
2017-05-03T05:13:31.160Z,1012.15
2017-05-03T05:14:11.717Z,1012.14
2017-05-03T05:14:52.249Z,1012.15
2017-05-03T05:15:32.762Z,1012.14
2017-05-03T05:16:13.297Z,1012.16
2017-05-03T05:16:53.839Z,1012.14
2017-05-03T05:17:34.334Z,1012.16
2017-05-03T05:18:14.859Z,1012.12
2017-05-03T05:18:55.419Z,1012.17
2017-05-03T05:19:35.955Z,1012.13
2017-05-03T05:20:16.527Z,1012.1
2017-05-03T05:20:57.018Z,1012.11
2017-05-03T05:21:37.550Z,1012.11
2017-05-03T05:22:18.051Z,1012.12
2017-05-03T05:22:58.612Z,1012.1
2017-05-03T05:23:39.138Z,1012.13
2017-05-03T05:24:19.713Z,1012.12
2017-05-03T05:25:00.175Z,1012.13
2017-05-03T05:25:40.703Z,1012.11
2017-05-03T05:26:21.185Z,1012.14
2017-05-03T05:27:01.683Z,1012.13
2017-05-03T05:27:42.239Z,1012.15
2017-05-03T05:28:22.774Z,1012.14
2017-05-03T05:29:03.287Z,1012.13
2017-05-03T05:29:43.866Z,1012.13
2017-05-03T05:30:24.326Z,1012.17
2017-05-03T05:31:06.561Z,1012.15
2017-05-03T05:31:47.051Z,1012.16
2017-05-03T05:32:27.568Z,1012.19
2017-05-03T05:33:08.080Z,1012.19
2017-05-03T05:33:48.593Z,1012.17
2017-05-03T05:34:29.135Z,1012.18
2017-05-03T05:35:09.661Z,1012.15
2017-05-03T05:35:50.267Z,1012.2
2017-05-03T05:36:30.730Z,1012.16
2017-05-03T05:37:11.288Z,1012.19
2017-05-03T05:37:51.818Z,1012.15
2017-05-03T05:38:32.279Z,1012.16
2017-05-03T05:39:12.798Z,1012.17
2017-05-03T05:39:53.284Z,1012.17
2017-05-03T05:40:33.793Z,1012.18
2017-05-03T05:41:14.312Z,1012.19
2017-05-03T05:41:54.878Z,1012.19
2017-05-03T05:42:35.354Z,1012.24
2017-05-03T05:43:15.882Z,1012.2
2017-05-03T05:43:56.410Z,1012.24
2017-05-03T05:44:36.917Z,1012.2
2017-05-03T05:45:17.387Z,1012.23
2017-05-03T05:45:57.867Z,1012.26
2017-05-03T05:46:38.487Z,1012.24
2017-05-03T05:47:19.251Z,1012.28
2017-05-03T05:47:59.883Z,1012.32
2017-05-03T05:48:40.391Z,1012.31
2017-05-03T05:49:20.952Z,1012.3
2017-05-03T05:50:01.439Z,1012.32
2017-05-03T05:50:41.956Z,1012.33
2017-05-03T05:51:22.439Z,1012.33
2017-05-03T05:52:02.928Z,1012.31
2017-05-03T05:52:43.431Z,1012.35
2017-05-03T05:53:23.960Z,1012.34
2017-05-03T05:54:04.460Z,1012.37
2017-05-03T05:54:44.951Z,1012.38
2017-05-03T05:55:25.470Z,1012.37
2017-05-03T05:56:06.017Z,1012.4
2017-05-03T05:56:46.516Z,1012.39
2017-05-03T05:57:27.088Z,1012.4
2017-05-03T05:58:07.579Z,1012.41
2017-05-03T05:58:48.100Z,1012.43
2017-05-03T05:59:28.625Z,1012.4
2017-05-03T06:00:09.121Z,1012.43
2017-05-03T06:00:49.628Z,1012.42
2017-05-03T06:01:30.140Z,1012.45
2017-05-03T06:02:10.647Z,1012.42
2017-05-03T06:02:51.169Z,1012.41
2017-05-03T06:03:31.714Z,1012.44
2017-05-03T06:04:12.229Z,1012.44
2017-05-03T06:04:52.742Z,1012.43
2017-05-03T06:05:33.278Z,1012.43
2017-05-03T06:06:13.838Z,1012.45
2017-05-03T06:06:54.373Z,1012.47
2017-05-03T06:07:34.885Z,1012.45
2017-05-03T06:08:15.408Z,1012.45
2017-05-03T06:08:55.941Z,1012.47
2017-05-03T06:09:36.434Z,1012.47
2017-05-03T06:10:16.959Z,1012.47
2017-05-03T06:10:57.511Z,1012.45
2017-05-03T06:11:38.049Z,1012.44
2017-05-03T06:12:18.559Z,1012.42
2017-05-03T06:12:59.078Z,1012.39
2017-05-03T06:13:39.586Z,1012.42
2017-05-03T06:14:20.129Z,1012.43
2017-05-03T06:15:00.627Z,1012.41
2017-05-03T06:15:41.183Z,1012.41
2017-05-03T06:16:21.698Z,1012.4
2017-05-03T06:17:02.215Z,1012.37
2017-05-03T06:17:42.677Z,1012.46
2017-05-03T06:18:23.208Z,1012.41
2017-05-03T06:19:03.714Z,1012.43
2017-05-03T06:19:44.230Z,1012.46
2017-05-03T06:20:24.782Z,1012.43
2017-05-03T06:21:05.230Z,1012.41
2017-05-03T06:21:45.767Z,1012.43
2017-05-03T06:22:26.268Z,1012.44
2017-05-03T06:23:06.792Z,1012.41
2017-05-03T06:23:47.325Z,1012.44
2017-05-03T06:24:27.865Z,1012.44
2017-05-03T06:25:08.404Z,1012.45
2017-05-03T06:25:48.913Z,1012.48
2017-05-03T06:26:29.588Z,1012.45
2017-05-03T06:27:10.110Z,1012.49
2017-05-03T06:27:50.617Z,1012.47
2017-05-03T06:28:31.118Z,1012.48
2017-05-03T06:29:11.665Z,1012.48
2017-05-03T06:29:52.201Z,1012.46
2017-05-03T06:30:32.732Z,1012.51
2017-05-03T06:31:13.245Z,1012.46
2017-05-03T06:31:53.767Z,1012.48
2017-05-03T06:32:34.288Z,1012.5
2017-05-03T06:33:14.817Z,1012.5
2017-05-03T06:33:55.319Z,1012.49
2017-05-03T06:34:35.814Z,1012.49
2017-05-03T06:35:16.311Z,1012.48
2017-05-03T06:35:57.159Z,1012.49
2017-05-03T06:36:38.465Z,1012.46
2017-05-03T06:37:19.311Z,1012.47
2017-05-03T06:38:00.209Z,1012.49
2017-05-03T06:38:40.741Z,1012.45
2017-05-03T06:39:21.263Z,1012.45
2017-05-03T06:40:01.778Z,1012.43
2017-05-03T06:40:42.330Z,1012.42
2017-05-03T06:41:22.857Z,1012.44
2017-05-03T06:42:03.370Z,1012.41
2017-05-03T06:42:43.918Z,1012.37
2017-05-03T06:43:24.418Z,1012.43
2017-05-03T06:44:04.956Z,1012.43
2017-05-03T06:44:45.482Z,1012.47
2017-05-03T06:45:26.005Z,1012.4
2017-05-03T06:46:06.531Z,1012.44
2017-05-03T06:46:47.078Z,1012.42
2017-05-03T06:47:27.592Z,1012.4
2017-05-03T06:48:08.123Z,1012.44
2017-05-03T06:48:48.652Z,1012.45
2017-05-03T06:49:29.183Z,1012.46
2017-05-03T06:50:09.737Z,1012.42
2017-05-03T06:50:50.217Z,1012.43
2017-05-03T06:51:30.749Z,1012.45
2017-05-03T06:52:11.274Z,1012.45
2017-05-03T06:52:51.768Z,1012.44
2017-05-03T06:53:32.298Z,1012.39
2017-05-03T06:54:12.822Z,1012.49
2017-05-03T06:54:53.333Z,1012.46
2017-05-03T06:55:33.867Z,1012.41
2017-05-03T06:56:14.383Z,1012.48
2017-05-03T06:56:54.875Z,1012.44
2017-05-03T06:57:35.400Z,1012.47
2017-05-03T06:58:15.936Z,1012.47
2017-05-03T06:58:56.469Z,1012.48
2017-05-03T06:59:36.994Z,1012.51
2017-05-03T07:00:17.515Z,1012.46
2017-05-03T07:00:58.046Z,1012.52
2017-05-03T07:01:38.579Z,1012.51
2017-05-03T07:02:19.084Z,1012.52
2017-05-03T07:02:59.599Z,1012.51
2017-05-03T07:03:40.129Z,1012.47
2017-05-03T07:04:20.653Z,1012.48
2017-05-03T07:05:01.176Z,1012.48
2017-05-03T07:05:41.700Z,1012.48
2017-05-03T07:06:22.242Z,1012.47
2017-05-03T07:07:02.775Z,1012.47
2017-05-03T07:07:43.290Z,1012.47
2017-05-03T07:08:23.825Z,1012.46
2017-05-03T07:09:04.349Z,1012.46
2017-05-03T07:09:44.869Z,1012.49
2017-05-03T07:10:25.392Z,1012.5
2017-05-03T07:11:05.900Z,1012.5
2017-05-03T07:11:46.431Z,1012.5
2017-05-03T07:12:26.949Z,1012.52
2017-05-03T07:13:07.475Z,1012.52
2017-05-03T07:13:48.015Z,1012.49
2017-05-03T07:14:28.533Z,1012.51
2017-05-03T07:15:09.042Z,1012.57
2017-05-03T07:15:49.566Z,1012.56
2017-05-03T07:16:30.091Z,1012.56
2017-05-03T07:17:10.614Z,1012.57
2017-05-03T07:17:51.151Z,1012.54
2017-05-03T07:18:31.654Z,1012.61
2017-05-03T07:19:12.163Z,1012.62
2017-05-03T07:19:52.692Z,1012.62
2017-05-03T07:20:33.212Z,1012.61
2017-05-03T07:21:13.751Z,1012.62
2017-05-03T07:21:54.279Z,1012.65
2017-05-03T07:22:34.795Z,1012.63
2017-05-03T07:23:15.327Z,1012.61
2017-05-03T07:23:55.864Z,1012.67
2017-05-03T07:24:36.385Z,1012.65
2017-05-03T07:25:16.882Z,1012.68
2017-05-03T07:25:57.413Z,1012.66
2017-05-03T07:26:37.941Z,1012.65
2017-05-03T07:27:18.454Z,1012.67
2017-05-03T07:27:59.002Z,1012.66
2017-05-03T07:28:39.524Z,1012.71
2017-05-03T07:29:20.000Z,1012.67
2017-05-03T07:30:00.532Z,1012.73
2017-05-03T07:30:41.047Z,1012.72
2017-05-03T07:31:21.585Z,1012.71
2017-05-03T07:32:02.091Z,1012.69
2017-05-03T07:32:42.609Z,1012.7
2017-05-03T07:33:23.138Z,1012.73
2017-05-03T07:34:03.662Z,1012.71
2017-05-03T07:34:44.203Z,1012.72
2017-05-03T07:35:24.716Z,1012.75
2017-05-03T07:36:05.241Z,1012.8
2017-05-03T07:36:45.762Z,1012.79
2017-05-03T07:37:26.266Z,1012.81
2017-05-03T07:38:06.796Z,1012.8
2017-05-03T07:38:47.315Z,1012.79
2017-05-03T07:39:27.847Z,1012.79
2017-05-03T07:40:08.329Z,1012.8
2017-05-03T07:40:48.832Z,1012.8
2017-05-03T07:41:29.343Z,1012.83
2017-05-03T07:42:09.871Z,1012.82
2017-05-03T07:42:50.405Z,1012.89
2017-05-03T07:43:30.921Z,1012.85
2017-05-03T07:44:11.461Z,1012.84
2017-05-03T07:44:52.002Z,1012.82
2017-05-03T07:45:32.536Z,1012.86
2017-05-03T07:46:13.061Z,1012.83
2017-05-03T07:46:53.585Z,1012.83
2017-05-03T07:47:34.112Z,1012.82
2017-05-03T07:48:14.637Z,1012.81
2017-05-03T07:48:55.162Z,1012.82
2017-05-03T07:49:35.686Z,1012.83
2017-05-03T07:50:16.208Z,1012.84
2017-05-03T07:50:56.722Z,1012.89
2017-05-03T07:51:37.245Z,1012.87
2017-05-03T07:52:17.771Z,1012.85
2017-05-03T07:52:58.305Z,1012.9
2017-05-03T07:53:38.844Z,1012.89
2017-05-03T07:54:19.372Z,1012.91
2017-05-03T07:54:59.909Z,1012.91
2017-05-03T07:55:40.407Z,1012.89
2017-05-03T07:56:20.925Z,1012.87
2017-05-03T07:57:01.430Z,1012.84
2017-05-03T07:57:41.963Z,1012.84
2017-05-03T07:58:22.511Z,1012.87
2017-05-03T07:59:03.010Z,1012.85
2017-05-03T07:59:43.539Z,1012.87
2017-05-03T08:00:24.066Z,1012.9
2017-05-03T08:01:04.616Z,1012.84
2017-05-03T08:01:45.144Z,1012.9
2017-05-03T08:02:25.666Z,1012.88
2017-05-03T08:03:06.216Z,1012.91
2017-05-03T08:03:46.748Z,1012.9
2017-05-03T08:04:27.282Z,1012.93
2017-05-03T08:05:07.804Z,1012.87
2017-05-03T08:05:48.341Z,1012.91
2017-05-03T08:06:28.869Z,1012.88
2017-05-03T08:07:09.447Z,1012.94
2017-05-03T08:07:49.992Z,1012.92
2017-05-03T08:08:30.517Z,1012.9
2017-05-03T08:09:11.021Z,1012.95
2017-05-03T08:09:51.535Z,1012.94
2017-05-03T08:10:32.040Z,1012.94
2017-05-03T08:11:12.570Z,1012.9
2017-05-03T08:11:53.104Z,1012.91